createdAt,value
2022-10-20T00:01:18.511Z,95.75
2022-10-20T00:03:46.140Z,95.41
2022-10-20T00:06:27.651Z,95.27
2022-10-20T00:08:56.128Z,95.49
2022-10-20T00:11:23.924Z,95.14
2022-10-20T00:13:53.467Z,95.60
2022-10-20T00:16:21.230Z,95.60
2022-10-20T00:18:47.955Z,95.51
2022-10-20T00:21:20.371Z,95.12
2022-10-20T00:23:47.146Z,95.34
2022-10-20T00:26:16.360Z,95.29
2022-10-20T00:28:43.255Z,95.44
2022-10-20T00:31:10.756Z,95.24
2022-10-20T00:33:37.336Z,95.49
2022-10-20T00:36:06.854Z,95.41
2022-10-20T00:38:34.639Z,95.26
2022-10-20T00:41:03.155Z,95.37
2022-10-20T00:43:46.086Z,94.85
2022-10-20T00:46:15.781Z,95.01
2022-10-20T00:48:45.569Z,95.02
2022-10-20T00:51:16.149Z,94.79
2022-10-20T00:53:44.944Z,94.96
2022-10-20T00:56:11.600Z,95.04
2022-10-20T00:58:38.599Z,95.23
2022-10-20T01:01:05.275Z,95.25
2022-10-20T01:03:40.565Z,95.82
2022-10-20T01:06:07.205Z,95.42
2022-10-20T01:08:33.963Z,95.65
2022-10-20T01:11:13.216Z,95.62
2022-10-20T01:13:53.695Z,95.69
2022-10-20T01:16:38.710Z,95.14
2022-10-20T01:19:42.488Z,94.62
2022-10-20T01:22:26.248Z,94.56
2022-10-20T01:25:08.184Z,94.57
2022-10-20T01:27:42.221Z,94.94
2022-10-20T01:30:18.720Z,94.63
2022-10-20T01:33:07.946Z,94.98
2022-10-20T01:36:11.832Z,94.52
2022-10-20T01:38:47.097Z,94.75
2022-10-20T01:41:36.775Z,95.17
2022-10-20T01:44:08.680Z,94.82
2022-10-20T01:46:37.184Z,95.12
2022-10-20T01:49:05.061Z,95.14
2022-10-20T01:51:33.048Z,94.99
2022-10-20T01:53:59.582Z,94.82
2022-10-20T01:56:42.602Z,95.26
2022-10-20T01:59:25.613Z,95.42
2022-10-20T02:02:21.635Z,95.74
2022-10-20T02:05:05.988Z,95.17
2022-10-20T02:07:33.515Z,95.41
2022-10-20T02:10:08.076Z,95.74
2022-10-20T02:12:39.019Z,95.44
2022-10-20T02:15:09.364Z,95.83
2022-10-20T02:17:40.593Z,96.14
2022-10-20T02:20:08.536Z,95.87
2022-10-20T02:22:35.578Z,96.34
2022-10-20T02:25:02.480Z,96.18
2022-10-20T02:27:37.309Z,96.09
2022-10-20T02:30:11.328Z,95.70
2022-10-20T02:32:40.897Z,95.52
2022-10-20T02:35:12.425Z,95.82
2022-10-20T02:37:39.142Z,95.47
2022-10-20T02:40:06.887Z,95.22
2022-10-20T02:42:33.535Z,95.78
2022-10-20T02:45:00.047Z,95.60
2022-10-20T02:47:26.526Z,95.45
2022-10-20T02:49:53.156Z,95.53
2022-10-20T02:52:19.669Z,95.49
2022-10-20T02:54:46.198Z,94.74
2022-10-20T02:57:12.645Z,94.37
2022-10-20T02:59:39.112Z,94.84
2022-10-20T03:02:05.626Z,94.94
2022-10-20T03:04:32.259Z,95.04
2022-10-20T03:06:58.708Z,94.74
2022-10-20T03:09:25.248Z,94.73
2022-10-20T03:11:51.712Z,94.94
2022-10-20T03:14:18.269Z,94.45
2022-10-20T03:16:44.774Z,94.77
2022-10-20T03:19:11.971Z,94.46
2022-10-20T03:21:38.729Z,94.43
2022-10-20T03:24:05.411Z,94.52
2022-10-20T03:26:31.926Z,94.30
2022-10-20T03:28:58.510Z,94.54
2022-10-20T03:31:25.095Z,94.16
2022-10-20T03:33:51.545Z,94.29
2022-10-20T03:36:18.096Z,94.24
2022-10-20T03:38:44.598Z,94.44
2022-10-20T03:41:11.648Z,94.46
2022-10-20T03:43:41.987Z,94.29
2022-10-20T03:46:10.843Z,94.48
2022-10-20T03:48:39.204Z,94.88
2022-10-20T03:51:06.374Z,94.75
2022-10-20T03:53:33.386Z,95.24
2022-10-20T03:55:59.916Z,95.69
2022-10-20T03:58:26.387Z,95.96
2022-10-20T04:00:54.092Z,95.82
2022-10-20T04:03:20.652Z,95.62
2022-10-20T04:05:47.335Z,95.65
2022-10-20T04:10:45.246Z,95.04
2022-10-20T04:13:11.695Z,94.86
2022-10-20T04:15:38.179Z,94.83
2022-10-20T04:18:04.625Z,95.14
2022-10-20T04:20:31.320Z,94.66
2022-10-20T04:22:57.780Z,94.78
2022-10-20T04:25:24.284Z,95.18
2022-10-20T04:27:50.806Z,95.22
2022-10-20T04:30:17.374Z,95.39
2022-10-20T04:32:43.905Z,94.89
2022-10-20T04:35:10.404Z,94.77
2022-10-20T04:37:37.003Z,95.20
2022-10-20T04:40:04.081Z,94.86
2022-10-20T04:42:30.656Z,95.40
2022-10-20T04:47:24.611Z,95.59
2022-10-20T04:49:51.116Z,95.64
2022-10-20T04:52:17.646Z,95.23
2022-10-20T04:54:44.090Z,95.09
2022-10-20T04:57:11.204Z,95.35
2022-10-20T04:59:37.671Z,95.40
2022-10-20T05:02:04.237Z,94.94
2022-10-20T05:04:30.808Z,94.65
2022-10-20T05:06:57.342Z,94.72
2022-10-20T05:09:25.895Z,94.75
2022-10-20T05:11:53.632Z,94.77
2022-10-20T05:14:20.233Z,94.60
2022-10-20T05:16:46.700Z,94.70
2022-10-20T05:19:13.146Z,94.97
2022-10-20T05:21:39.664Z,94.83
2022-10-20T05:24:06.494Z,94.74
2022-10-20T05:26:37.230Z,95.11
2022-10-20T05:29:06.200Z,94.76
2022-10-20T05:31:37.488Z,94.71
2022-10-20T05:34:04.033Z,94.84
2022-10-20T05:36:30.488Z,94.79
2022-10-20T05:38:57.080Z,94.52
2022-10-20T05:41:26.229Z,94.98
2022-10-20T05:43:58.664Z,94.96
2022-10-20T05:46:31.264Z,95.27
2022-10-20T05:49:01.364Z,95.04
2022-10-20T05:51:30.905Z,95.24
2022-10-20T05:53:58.892Z,94.92
2022-10-20T05:56:27.094Z,95.21
2022-10-20T05:58:55.132Z,95.14
2022-10-20T06:01:25.265Z,95.04
2022-10-20T06:03:54.603Z,95.37
2022-10-20T06:06:22.687Z,95.02
2022-10-20T06:08:50.854Z,95.37
2022-10-20T06:11:19.043Z,95.61
2022-10-20T06:13:48.641Z,94.98
2022-10-20T06:16:23.331Z,95.39
2022-10-20T06:18:50.367Z,95.06
2022-10-20T06:21:19.833Z,95.42
2022-10-20T06:23:46.822Z,95.14
2022-10-20T06:26:17.726Z,95.09
2022-10-20T06:28:47.232Z,94.83
2022-10-20T06:31:19.277Z,95.53
2022-10-20T06:33:46.445Z,95.46
2022-10-20T06:36:14.401Z,95.81
2022-10-20T06:38:42.200Z,95.86
2022-10-20T06:41:14.457Z,96.43
2022-10-20T06:43:41.228Z,96.66
2022-10-20T06:46:10.549Z,96.52
2022-10-20T06:48:37.252Z,96.94
2022-10-20T06:51:10.574Z,97.18
2022-10-20T06:53:39.556Z,96.91
2022-10-20T06:56:11.773Z,97.20
2022-10-20T06:58:39.849Z,97.72
2022-10-20T07:01:10.179Z,98.04
2022-10-20T07:03:38.757Z,98.15
2022-10-20T07:06:06.725Z,97.85
2022-10-20T07:08:35.257Z,97.83
2022-10-20T07:11:04.478Z,97.94
2022-10-20T07:13:32.588Z,97.59
2022-10-20T07:15:59.707Z,97.56
2022-10-20T07:18:28.001Z,98.08
2022-10-20T07:21:06.264Z,97.88
2022-10-20T07:23:33.874Z,97.74
2022-10-20T07:26:09.015Z,97.99
2022-10-20T07:28:36.007Z,98.06
2022-10-20T07:31:05.367Z,98.13
2022-10-20T07:33:33.220Z,97.87
2022-10-20T07:35:59.825Z,97.92
2022-10-20T07:38:26.870Z,97.92
2022-10-20T07:40:53.685Z,98.13
2022-10-20T07:43:20.483Z,98.12
2022-10-20T07:45:46.976Z,98.19
2022-10-20T07:48:13.535Z,98.16
2022-10-20T07:50:40.766Z,98.01
2022-10-20T07:53:07.250Z,98.00
2022-10-20T07:55:39.060Z,98.04
2022-10-20T07:58:05.992Z,98.01
2022-10-20T08:00:32.642Z,97.72
2022-10-20T08:02:59.258Z,97.91
2022-10-20T08:05:26.780Z,97.94
2022-10-20T08:07:53.479Z,97.56
2022-10-20T08:10:20.056Z,97.36
2022-10-20T08:12:46.520Z,97.54
2022-10-20T08:15:13.210Z,97.24
2022-10-20T08:17:39.688Z,96.88
2022-10-20T08:20:12.758Z,96.84
2022-10-20T08:22:39.707Z,96.67
2022-10-20T08:25:06.843Z,96.58
2022-10-20T08:27:33.391Z,95.20
2022-10-20T08:30:06.206Z,95.25
2022-10-20T08:32:39.069Z,95.09
2022-10-20T08:35:06.534Z,94.47
2022-10-20T08:37:33.707Z,92.99
2022-10-20T08:40:00.481Z,93.17
2022-10-20T08:42:27.129Z,93.12
2022-10-20T08:44:59.341Z,91.26
2022-10-20T08:47:35.242Z,91.97
2022-10-20T08:50:06.371Z,91.18
2022-10-20T08:52:33.663Z,91.62
2022-10-20T08:58:30.951Z,89.27
2022-10-20T09:00:59.797Z,88.49
2022-10-20T09:03:32.756Z,88.54
2022-10-20T09:06:08.206Z,90.47
2022-10-20T09:08:37.609Z,88.40
2022-10-20T09:11:08.086Z,88.29
2022-10-20T09:13:36.813Z,87.80
2022-10-20T09:16:07.087Z,84.44
2022-10-20T09:18:34.711Z,85.34
2022-10-20T09:21:13.386Z,84.48
2022-10-20T09:23:43.658Z,82.33
2022-10-20T09:26:25.121Z,84.53
2022-10-20T09:29:15.817Z,81.84
2022-10-20T09:31:54.356Z,81.69
2022-10-20T09:34:31.212Z,82.31
2022-10-20T09:37:10.772Z,80.55
2022-10-20T09:39:47.156Z,80.74
2022-10-20T09:42:24.585Z,79.72
2022-10-20T09:44:56.913Z,81.55
2022-10-20T09:47:25.264Z,78.46
2022-10-20T09:50:00.830Z,78.42
2022-10-20T09:52:31.964Z,78.92
2022-10-20T09:55:02.715Z,76.31
2022-10-20T09:57:31.142Z,75.38
2022-10-20T10:00:01.437Z,76.83
2022-10-20T10:02:32.503Z,75.20
2022-10-20T10:05:20.561Z,76.04
2022-10-20T10:07:57.987Z,75.68
2022-10-20T10:10:27.313Z,73.24
2022-10-20T10:13:00.937Z,72.94
2022-10-20T10:15:29.471Z,75.14
2022-10-20T10:17:57.172Z,75.08
2022-10-20T10:20:36.837Z,71.79
2022-10-20T10:23:18.862Z,71.09
2022-10-20T10:25:45.427Z,72.45
2022-10-20T10:28:29.504Z,72.85
2022-10-20T10:31:19.438Z,73.21
2022-10-20T10:33:46.840Z,71.66
2022-10-20T10:36:35.363Z,70.41
2022-10-20T10:39:05.103Z,70.79
2022-10-20T10:41:49.942Z,68.68
2022-10-20T10:44:41.931Z,70.66
2022-10-20T10:47:08.362Z,70.41
2022-10-20T10:49:43.764Z,70.32
2022-10-20T10:52:38.527Z,69.42
2022-10-20T10:55:47.084Z,69.57
2022-10-20T10:58:26.769Z,68.25
2022-10-20T11:01:00.169Z,65.41
2022-10-20T11:03:48.440Z,67.07
2022-10-20T11:06:26.568Z,66.55
2022-10-20T11:09:31.583Z,65.86
2022-10-20T11:12:18.048Z,65.65
2022-10-20T11:15:15.723Z,66.62
2022-10-20T11:18:02.487Z,66.77
2022-10-20T11:20:38.125Z,67.87
2022-10-20T11:23:21.822Z,65.95
2022-10-20T11:26:23.147Z,66.82
2022-10-20T11:28:55.196Z,64.02
2022-10-20T11:31:36.953Z,63.27
2022-10-20T11:34:15.998Z,66.99
2022-10-20T11:36:50.345Z,64.10
2022-10-20T11:39:26.367Z,63.32
2022-10-20T11:41:58.368Z,62.06
2022-10-20T11:44:30.912Z,66.31
2022-10-20T11:47:06.172Z,64.78
2022-10-20T11:49:33.615Z,63.61
2022-10-20T11:52:12.211Z,62.39
2022-10-20T11:54:56.972Z,63.67
2022-10-20T11:58:14.677Z,61.50
2022-10-20T12:01:00.250Z,61.84
2022-10-20T12:03:49.952Z,64.94
2022-10-20T12:06:25.287Z,63.09
2022-10-20T12:09:04.691Z,62.89
2022-10-20T12:11:51.132Z,61.57
2022-10-20T12:14:27.806Z,63.29
2022-10-20T12:16:54.357Z,62.32
2022-10-20T12:19:29.651Z,62.62
2022-10-20T12:22:06.800Z,63.11
2022-10-20T12:24:56.571Z,63.95
2022-10-20T12:27:27.719Z,64.15
2022-10-20T12:29:55.886Z,63.09
2022-10-20T12:32:24.241Z,64.57
2022-10-20T12:34:59.463Z,63.42
2022-10-20T12:37:31.052Z,62.93
2022-10-20T12:40:19.921Z,63.49
2022-10-20T12:42:48.021Z,63.47
2022-10-20T12:45:20.459Z,63.64
2022-10-20T12:47:51.031Z,62.01
2022-10-20T12:50:38.204Z,62.00
2022-10-20T12:53:23.756Z,61.18
2022-10-20T12:55:59.490Z,62.36
2022-10-20T12:58:40.916Z,60.17
2022-10-20T13:01:12.244Z,61.22
2022-10-20T13:03:41.071Z,62.44
2022-10-20T13:06:22.918Z,61.46
2022-10-20T13:09:04.813Z,59.85
2022-10-20T13:11:44.709Z,60.97
2022-10-20T13:14:30.458Z,61.75
2022-10-20T13:17:09.076Z,60.34
2022-10-20T13:19:43.517Z,60.21
2022-10-20T13:22:38.084Z,61.13
2022-10-20T13:25:13.199Z,60.62
2022-10-20T13:27:39.959Z,60.20
2022-10-20T13:30:08.791Z,61.68
2022-10-20T13:33:02.031Z,59.49
2022-10-20T13:35:53.407Z,59.65
2022-10-20T13:38:26.463Z,60.54
2022-10-20T13:43:44.491Z,62.48
2022-10-20T13:46:29.158Z,62.59
2022-10-20T13:49:01.806Z,61.64
2022-10-20T13:51:47.120Z,62.88
2022-10-20T13:54:26.306Z,63.35
2022-10-20T13:56:53.753Z,61.48
2022-10-20T14:01:58.940Z,64.87
2022-10-20T14:04:30.120Z,63.75
2022-10-20T14:07:04.122Z,64.73
2022-10-20T14:09:30.660Z,64.19
2022-10-20T14:12:08.415Z,66.31
2022-10-20T14:14:35.176Z,65.11
2022-10-20T14:17:04.855Z,64.47
2022-10-20T14:19:33.510Z,66.58
2022-10-20T14:22:15.653Z,65.69
2022-10-20T14:24:44.833Z,63.93
2022-10-20T14:27:20.275Z,65.00
2022-10-20T14:29:48.138Z,66.21
2022-10-20T14:32:20.704Z,65.94
2022-10-20T14:34:59.136Z,65.54
2022-10-20T14:37:40.004Z,66.20
2022-10-20T14:40:31.787Z,67.52
2022-10-20T14:43:12.832Z,66.24
2022-10-20T14:45:39.333Z,66.44
2022-10-20T14:48:12.741Z,67.12
2022-10-20T14:50:42.495Z,67.24
2022-10-20T14:53:27.896Z,67.32
2022-10-20T14:55:55.656Z,66.14
2022-10-20T14:58:58.886Z,66.72
2022-10-20T15:01:32.401Z,67.62
2022-10-20T15:04:11.028Z,68.55
2022-10-20T15:06:37.487Z,67.18
2022-10-20T15:09:04.568Z,67.98
2022-10-20T15:11:32.389Z,67.10
2022-10-20T15:14:00.321Z,69.28
2022-10-20T15:16:41.907Z,70.10
2022-10-20T15:19:29.299Z,69.45
2022-10-20T15:22:01.869Z,70.62
2022-10-20T15:24:28.973Z,70.24
2022-10-20T15:26:57.022Z,70.88
2022-10-20T15:29:24.343Z,71.38
2022-10-20T15:31:50.903Z,71.54
2022-10-20T15:34:17.415Z,73.09
2022-10-20T15:36:44.634Z,73.36
2022-10-20T15:39:12.815Z,74.17
2022-10-20T15:41:40.020Z,74.25
2022-10-20T15:44:23.764Z,74.79
2022-10-20T15:46:55.151Z,76.28
2022-10-20T15:49:22.559Z,75.39
2022-10-20T15:51:50.574Z,75.97
2022-10-20T15:54:23.234Z,77.30
2022-10-20T15:56:50.043Z,77.64
2022-10-20T16:02:59.247Z,77.64
2022-10-20T16:11:53.716Z,78.27
2022-10-20T16:14:20.197Z,79.47
2022-10-20T16:16:46.795Z,79.62
2022-10-20T16:22:26.561Z,79.42
2022-10-20T16:24:53.279Z,79.80
2022-10-20T16:27:19.728Z,80.05
2022-10-20T16:29:49.026Z,79.89
2022-10-20T16:32:16.401Z,80.69
2022-10-20T16:34:42.870Z,81.28
2022-10-20T16:37:09.368Z,81.01
2022-10-20T16:39:35.900Z,81.05
2022-10-20T16:42:02.432Z,81.69
2022-10-20T16:44:30.605Z,81.59
2022-10-20T16:46:57.991Z,81.67
2022-10-20T16:49:25.041Z,81.54
2022-10-20T16:51:52.121Z,81.75
2022-10-20T16:54:18.959Z,82.22
2022-10-20T16:56:45.759Z,82.01
2022-10-20T16:59:12.492Z,82.07
2022-10-20T17:01:38.956Z,82.52
2022-10-20T17:04:05.410Z,82.99
2022-10-20T17:06:32.024Z,83.43
2022-10-20T17:08:59.815Z,82.75
2022-10-20T17:11:29.788Z,82.74
2022-10-20T17:13:57.436Z,83.35
2022-10-20T17:16:35.241Z,82.92
2022-10-20T17:19:02.677Z,82.51
2022-10-20T17:21:31.174Z,82.80
2022-10-20T17:23:57.801Z,83.07
2022-10-20T17:26:26.856Z,83.25
2022-10-20T17:28:55.355Z,83.49
2022-10-20T17:31:22.608Z,83.11
2022-10-20T17:33:49.329Z,83.94
2022-10-20T17:36:15.932Z,84.59
2022-10-20T17:38:42.908Z,84.46
2022-10-20T17:41:12.291Z,84.47
2022-10-20T17:43:39.128Z,84.42
2022-10-20T17:46:11.957Z,84.99
2022-10-20T17:48:40.340Z,84.27
2022-10-20T17:51:17.927Z,84.68
2022-10-20T17:53:48.024Z,84.84
2022-10-20T17:56:22.825Z,84.35
2022-10-20T17:58:51.415Z,84.16
2022-10-20T18:01:23.927Z,84.12
2022-10-20T18:03:58.792Z,84.02
2022-10-20T18:06:30.034Z,83.72
2022-10-20T18:09:01.990Z,83.08
2022-10-20T18:11:30.987Z,82.77
2022-10-20T18:13:59.941Z,82.60
2022-10-20T18:16:28.696Z,82.64
2022-10-20T18:21:25.700Z,83.25
2022-10-20T18:24:02.302Z,82.87
2022-10-20T18:26:30.716Z,82.82
2022-10-20T18:28:58.472Z,82.54
2022-10-20T18:31:27.359Z,82.47
2022-10-20T18:34:04.427Z,81.83
2022-10-20T18:36:33.499Z,81.36
2022-10-20T18:39:00.460Z,81.42
2022-10-20T18:41:29.398Z,81.12
2022-10-20T18:43:58.500Z,81.24
2022-10-20T18:46:26.906Z,80.59
2022-10-20T18:48:54.465Z,80.99
2022-10-20T18:51:21.571Z,79.94
2022-10-20T18:53:52.945Z,79.26
2022-10-20T18:56:21.686Z,79.29
2022-10-20T18:58:57.147Z,80.42
2022-10-20T19:01:26.122Z,80.48
2022-10-20T19:03:54.378Z,80.27
2022-10-20T19:06:22.310Z,80.41
2022-10-20T19:08:52.831Z,80.56
2022-10-20T19:11:20.804Z,80.96
2022-10-20T19:13:47.572Z,81.04
2022-10-20T19:16:18.072Z,81.15
2022-10-20T19:18:46.338Z,80.94
2022-10-20T19:21:13.331Z,81.47
2022-10-20T19:23:50.004Z,81.59
2022-10-20T19:26:18.441Z,81.41
2022-10-20T19:28:58.676Z,81.17
2022-10-20T19:31:31.972Z,81.12
2022-10-20T19:34:01.664Z,80.79
2022-10-20T19:36:29.349Z,81.16
2022-10-20T19:38:56.244Z,81.55
2022-10-20T19:41:22.948Z,81.54
2022-10-20T19:43:50.063Z,81.44
2022-10-20T19:46:18.148Z,81.84
2022-10-20T19:48:46.320Z,81.22
2022-10-20T19:51:14.457Z,82.25
2022-10-20T19:53:41.151Z,82.46
2022-10-20T19:56:08.981Z,81.90
2022-10-20T19:58:39.349Z,82.71
2022-10-20T20:01:09.111Z,82.22
2022-10-20T20:03:36.328Z,82.42
2022-10-20T20:06:18.585Z,82.45
2022-10-20T20:08:47.255Z,82.40
2022-10-20T20:11:23.579Z,82.94
2022-10-20T20:13:55.971Z,82.50
2022-10-20T20:16:23.036Z,82.29
2022-10-20T20:18:49.788Z,83.17
2022-10-20T20:21:17.097Z,83.49
2022-10-20T20:24:00.143Z,83.12
2022-10-20T20:26:32.682Z,84.07
2022-10-20T20:28:59.717Z,83.44
2022-10-20T20:31:27.851Z,83.69
2022-10-20T20:33:55.222Z,84.57
2022-10-20T20:36:21.768Z,84.69
2022-10-20T20:38:49.862Z,84.77
2022-10-20T20:41:18.078Z,84.60
2022-10-20T20:43:45.391Z,84.62
2022-10-20T20:46:17.538Z,85.01
2022-10-20T20:48:44.540Z,84.74
2022-10-20T20:51:12.637Z,84.58
2022-10-20T20:53:39.967Z,85.20
2022-10-20T20:56:07.954Z,84.37
2022-10-20T20:58:34.923Z,84.76
2022-10-20T21:01:22.922Z,84.67
2022-10-20T21:03:57.438Z,84.37
2022-10-20T21:06:33.287Z,84.67
2022-10-20T21:09:06.702Z,84.18
2022-10-20T21:11:33.322Z,84.24
2022-10-20T21:13:59.807Z,84.07
2022-10-20T21:16:34.732Z,83.78
2022-10-20T21:19:04.375Z,82.98
2022-10-20T21:21:36.626Z,83.27
2022-10-20T21:24:04.366Z,83.41
2022-10-20T21:26:32.357Z,83.72
2022-10-20T21:28:58.935Z,82.75
2022-10-20T21:31:26.603Z,82.77
2022-10-20T21:33:58.494Z,82.36
2022-10-20T21:36:26.039Z,82.44
2022-10-20T21:38:52.553Z,82.24
2022-10-20T21:41:21.818Z,82.28
2022-10-20T21:43:50.881Z,81.67
2022-10-20T21:46:26.346Z,81.99
2022-10-20T21:49:03.414Z,82.11
2022-10-20T21:51:32.836Z,81.99
2022-10-20T21:54:02.215Z,82.04
2022-10-20T21:56:28.984Z,82.07
2022-10-20T21:58:56.044Z,82.04
2022-10-20T22:01:24.642Z,82.44
2022-10-20T22:03:52.905Z,81.65
2022-10-20T22:06:22.036Z,81.59
2022-10-20T22:08:50.788Z,81.54
2022-10-20T22:11:20.333Z,81.96
2022-10-20T22:13:50.287Z,81.22
2022-10-20T22:16:20.436Z,81.44
2022-10-20T22:18:47.043Z,82.09
2022-10-20T22:21:16.424Z,81.48
2022-10-20T22:23:44.218Z,81.10
2022-10-20T22:26:11.802Z,81.24
2022-10-20T22:28:38.425Z,80.44
2022-10-20T22:31:06.633Z,80.69
2022-10-20T22:33:33.386Z,80.24
2022-10-20T22:35:59.989Z,80.07
2022-10-20T22:38:26.447Z,80.12
2022-10-20T22:40:52.868Z,79.62
2022-10-20T22:43:19.328Z,79.82
2022-10-20T22:45:45.826Z,79.71
2022-10-20T22:48:12.301Z,79.38
2022-10-20T22:50:38.785Z,79.97
2022-10-20T22:53:05.231Z,79.62
2022-10-20T22:55:31.692Z,81.20
2022-10-20T23:00:29.912Z,82.73
2022-10-20T23:02:56.386Z,82.68
2022-10-20T23:05:22.925Z,82.57
2022-10-20T23:07:49.457Z,83.47
2022-10-20T23:10:16.247Z,82.81
2022-10-20T23:12:43.044Z,83.61
2022-10-20T23:15:09.976Z,84.54
2022-10-20T23:17:37.731Z,85.09
2022-10-20T23:20:04.976Z,85.65
2022-10-20T23:22:31.532Z,86.24
2022-10-20T23:24:57.985Z,87.56
2022-10-20T23:27:24.519Z,87.66
2022-10-20T23:29:50.951Z,87.74
2022-10-20T23:32:17.426Z,88.05
2022-10-20T23:34:43.994Z,87.94
2022-10-20T23:37:10.452Z,87.88
2022-10-20T23:39:38.993Z,88.39
2022-10-20T23:42:07.351Z,88.17
2022-10-20T23:44:34.086Z,87.77
2022-10-20T23:47:00.636Z,88.14
2022-10-20T23:49:27.122Z,88.05
2022-10-20T23:51:53.644Z,88.87
2022-10-20T23:54:20.208Z,89.32
2022-10-20T23:56:46.836Z,88.86
2022-10-20T23:59:13.485Z,89.04
